BBC Delaware — V2CN9 — position and weather

sailwx.info

Track history (hours):
 
Tides and Currents Weather Stations Pressure Air Temp Water Temp Dewpoint Dewpoint Depression Visibility Wind Speed Wind Dir Waves Ship Positions

BBC Delaware

Last reported at 2018-Jan-12 15:00 UTC. Time now 2018-Jan-22 00:20 UTC.
Position N 29°42' W 095°00'.
Warning: this ship's position is 9 days out of date.

Length 138 m; draft 5.3 m.

Type: Ship. MMSI: 305057000.

Date/timePositionNaut miles runAvg speedWind from/ knotsBaromVisibWave heightAir tempDewpointWater temp
2018-Jan-12 15:00N 29°42' W 095°00'510.9
2018-Jan-12 14:30N 29°37' W 094°57'612.3
2018-Jan-12 14:00N 29°32' W 094°54'612.1
2018-Jan-12 13:30N 29°27' W 094°50'  
2018-Jan-07 05:31N 27°06' W 091°00'115.6
2018-Jan-07 05:28N 27°05' W 090°59'815.6
2018-Jan-07 04:59N 27°02' W 090°52'815.5
2018-Jan-07 04:30N 26°58' W 090°44'815.5
2018-Jan-07 03:59N 26°54' W 090°37'715.4
2018-Jan-07 03:29N 26°50' W 090°29'  
Track history (hours):
 
Tides and Currents Weather Stations Pressure Air Temp Water Temp Dewpoint Dewpoint Depression Visibility Wind Speed Wind Dir Waves Ship Positions

BBC Delaware

Last reported at 2018-Jan-12 15:00 UTC. Time now 2018-Jan-22 00:20 UTC.
Position N 29°42' W 095°00'.
Warning: this ship's position is 9 days out of date.

Length 138 m; draft 5.3 m.

Type: Ship. MMSI: 305057000.

Date/timePositionNaut miles runAvg speedWind from/ knotsBaromVisibWave heightAir tempDewpointWater temp
2018-Jan-12 15:00N 29°42' W 095°00'510.9
2018-Jan-12 14:30N 29°37' W 094°57'612.3
2018-Jan-12 14:00N 29°32' W 094°54'612.1
2018-Jan-12 13:30N 29°27' W 094°50'  
2018-Jan-07 05:31N 27°06' W 091°00'115.6
2018-Jan-07 05:28N 27°05' W 090°59'815.6
2018-Jan-07 04:59N 27°02' W 090°52'815.5
2018-Jan-07 04:30N 26°58' W 090°44'815.5
2018-Jan-07 03:59N 26°54' W 090°37'715.4
2018-Jan-07 03:29N 26°50' W 090°29'  

Dump ship's entire track history